Terminal Aerodrome Forecast
Issued by NWS

Home | Current Version | Previous Version | Text Only | Print | Product List | Glossary On
Versions: 1 2 3 4 5 6 7 8 9 10 11 12 13 14 15
000
FTUS45 KRIW 260200 AAB
TAFCOD
TAF AMD
KCOD 260254Z 2603/2624 35006KT 4SM -SHSN SCT010 OVC020
      TEMPO 2603/2605 2SM -SN BKN010
     FM260500 35007KT P6SM -SN SCT020 BKN035
     FM260900 31006KT P6SM SCT040 BKN090
     FM261500 VRB04KT P6SM BKN100
      AMD LTD TO CLD VIS AND WIND=

USA.gov is the U.S. government's official web portal to all federal, state and local government web resources and services.